createdAt,value
2023-02-09T00:02:47.631Z,70.40
2023-02-09T00:05:51.467Z,70.40
2023-02-09T00:08:57.973Z,70.40
2023-02-09T00:12:15.040Z,70.50
2023-02-09T00:15:22.821Z,70.50
2023-02-09T00:18:27.982Z,70.40
2023-02-09T00:21:34.190Z,70.40
2023-02-09T00:24:38.580Z,70.40
2023-02-09T00:27:44.362Z,70.40
2023-02-09T00:30:50.133Z,70.40
2023-02-09T00:33:56.457Z,70.30
2023-02-09T00:37:00.329Z,70.30
2023-02-09T00:40:06.841Z,70.40
2023-02-09T00:43:11.669Z,70.40
2023-02-09T00:46:19.498Z,70.40
2023-02-09T00:49:23.421Z,70.30
2023-02-09T00:52:29.372Z,70.90
2023-02-09T00:55:33.232Z,70.20
2023-02-09T00:58:39.062Z,70.30
2023-02-09T01:01:44.889Z,70.30
2023-02-09T01:04:50.705Z,70.30
2023-02-09T01:07:54.830Z,70.40
2023-02-09T01:11:00.790Z,70.20
2023-02-09T01:14:06.190Z,70.30
2023-02-09T01:17:13.936Z,70.20
2023-02-09T01:20:19.412Z,70.30
2023-02-09T01:23:25.234Z,70.20
2023-02-09T01:26:29.415Z,70.90
2023-02-09T01:29:35.288Z,70.20
2023-02-09T01:32:41.016Z,70.30
2023-02-09T01:35:46.880Z,70.30
2023-02-09T01:38:51.020Z,70.30
2023-02-09T01:41:56.963Z,70.30
2023-02-09T01:45:26.563Z,70.30
2023-02-09T01:48:34.396Z,70.30
2023-02-09T01:51:42.093Z,70.30
2023-02-09T01:54:51.697Z,70.30
2023-02-09T01:57:59.439Z,70.30
2023-02-09T02:01:05.659Z,70.30
2023-02-09T02:04:12.188Z,70.20
2023-02-09T02:07:21.873Z,70.30
2023-02-09T02:10:25.831Z,70.30
2023-02-09T02:13:31.891Z,70.30
2023-02-09T02:16:51.884Z,70.30
2023-02-09T02:20:30.094Z,70.30
2023-02-09T02:23:40.802Z,70.20
2023-02-09T02:26:59.513Z,70.30
2023-02-09T02:30:35.629Z,70.30
2023-02-09T02:33:46.790Z,70.30
2023-02-09T02:37:01.165Z,70.30
2023-02-09T02:40:16.021Z,71.00
2023-02-09T02:43:26.522Z,70.40
2023-02-09T02:46:36.967Z,70.40
2023-02-09T02:49:49.519Z,70.40
2023-02-09T02:52:59.186Z,70.40
2023-02-09T02:56:08.716Z,70.40
2023-02-09T02:59:18.681Z,70.40
2023-02-09T03:02:26.007Z,70.40
2023-02-09T03:05:34.548Z,70.40
2023-02-09T03:08:49.158Z,70.40
2023-02-09T03:12:02.028Z,70.40
2023-02-09T03:15:18.645Z,70.40
2023-02-09T03:18:30.124Z,70.40
2023-02-09T03:21:46.333Z,70.50
2023-02-09T03:24:58.243Z,70.40
2023-02-09T03:28:06.169Z,70.50
2023-02-09T03:31:12.811Z,70.40
2023-02-09T03:34:17.586Z,70.50
2023-02-09T03:37:25.999Z,70.40
2023-02-09T03:40:29.963Z,70.50
2023-02-09T03:43:54.413Z,70.50
2023-02-09T03:47:00.406Z,70.50
2023-02-09T03:50:06.829Z,70.50
2023-02-09T03:53:12.592Z,70.50
2023-02-09T03:56:18.406Z,70.50
2023-02-09T03:59:24.566Z,71.10
2023-02-09T04:02:30.422Z,70.50
2023-02-09T04:05:34.356Z,70.60
2023-02-09T04:08:42.495Z,70.60
2023-02-09T04:11:46.922Z,70.60
2023-02-09T04:14:52.836Z,70.60
2023-02-09T04:17:56.640Z,70.60
2023-02-09T04:21:02.544Z,70.60
2023-02-09T04:24:09.176Z,70.60
2023-02-09T04:27:15.036Z,70.60
2023-02-09T04:30:19.072Z,70.60
2023-02-09T04:33:25.939Z,70.60
2023-02-09T04:36:30.003Z,70.70
2023-02-09T04:39:37.780Z,70.60
2023-02-09T04:42:41.681Z,70.60
2023-02-09T04:45:48.164Z,70.70
2023-02-09T04:48:52.136Z,70.60
2023-02-09T04:51:57.962Z,70.60
2023-02-09T04:55:03.863Z,70.70
2023-02-09T04:58:27.298Z,70.70
2023-02-09T05:01:32.018Z,70.70
2023-02-09T05:04:38.064Z,70.70
2023-02-09T05:07:41.896Z,70.70
2023-02-09T05:10:49.655Z,70.70
2023-02-09T05:13:53.512Z,70.80
2023-02-09T05:16:59.643Z,70.80
2023-02-09T05:20:03.627Z,70.80
2023-02-09T05:23:09.515Z,70.80
2023-02-09T05:26:15.255Z,70.80
2023-02-09T05:29:22.281Z,70.80
2023-02-09T05:32:26.269Z,70.90
2023-02-09T05:35:32.188Z,71.40
2023-02-09T05:38:36.217Z,70.80
2023-02-09T05:41:57.098Z,70.80
2023-02-09T05:45:00.988Z,70.80
2023-02-09T05:48:07.028Z,70.80
2023-02-09T05:51:10.909Z,70.80
2023-02-09T05:54:16.886Z,70.90
2023-02-09T05:57:22.616Z,70.90
2023-02-09T06:00:29.239Z,70.80
2023-02-09T06:03:33.121Z,70.90
2023-02-09T06:06:38.995Z,70.90
2023-02-09T06:09:42.796Z,70.90
2023-02-09T06:12:50.612Z,70.90
2023-02-09T06:15:54.594Z,71.00
2023-02-09T06:19:00.472Z,70.80
2023-02-09T06:22:04.362Z,70.90
2023-02-09T06:25:10.621Z,71.00
2023-02-09T06:28:16.407Z,71.00
2023-02-09T06:31:22.496Z,71.00
2023-02-09T06:34:27.232Z,71.00
2023-02-09T06:37:33.131Z,71.00
2023-02-09T06:40:36.988Z,71.00
2023-02-09T06:43:44.752Z,71.00
2023-02-09T06:46:48.570Z,70.90
2023-02-09T06:49:54.354Z,71.10
2023-02-09T06:52:59.070Z,70.90
2023-02-09T06:56:05.541Z,71.10
2023-02-09T06:59:11.293Z,71.00
2023-02-09T07:02:17.297Z,71.00
2023-02-09T07:05:21.702Z,71.10
2023-02-09T07:08:27.503Z,71.00
2023-02-09T07:11:31.893Z,71.10
2023-02-09T07:14:39.635Z,71.10
2023-02-09T07:17:43.741Z,71.10
2023-02-09T07:20:55.789Z,71.10
2023-02-09T07:23:59.661Z,71.10
2023-02-09T07:27:06.076Z,71.10
2023-02-09T07:30:13.616Z,71.10
2023-02-09T07:33:19.568Z,71.20
2023-02-09T07:36:23.580Z,71.70
2023-02-09T07:39:29.653Z,71.10
2023-02-09T07:42:33.657Z,71.10
2023-02-09T07:45:44.347Z,71.20
2023-02-09T07:48:48.979Z,71.10
2023-02-09T07:51:54.826Z,71.20
2023-02-09T07:54:58.847Z,71.10
2023-02-09T07:58:04.715Z,71.10
2023-02-09T08:01:13.509Z,71.20
2023-02-09T08:04:19.393Z,71.20
2023-02-09T08:07:23.432Z,71.20
2023-02-09T08:10:29.511Z,71.20
2023-02-09T08:13:37.737Z,71.30
2023-02-09T08:16:45.980Z,71.30
2023-02-09T08:19:53.619Z,71.20
2023-02-09T08:23:06.773Z,71.30
2023-02-09T08:26:12.495Z,71.30
2023-02-09T08:29:18.316Z,71.30
2023-02-09T08:32:24.310Z,71.40
2023-02-09T08:35:30.833Z,71.30
2023-02-09T08:38:36.558Z,71.30
2023-02-09T08:41:43.748Z,71.40
2023-02-09T08:44:49.091Z,71.40
2023-02-09T08:47:56.889Z,71.40
2023-02-09T08:51:01.118Z,71.40
2023-02-09T08:54:06.948Z,71.40
2023-02-09T08:57:10.777Z,71.50
2023-02-09T09:00:18.349Z,71.50
2023-02-09T09:03:27.128Z,71.50
2023-02-09T09:06:32.967Z,71.50
2023-02-09T09:09:36.991Z,71.60
2023-02-09T09:12:42.868Z,71.60
2023-02-09T09:15:47.056Z,71.60
2023-02-09T09:18:54.946Z,72.20
2023-02-09T09:22:02.854Z,71.60
2023-02-09T09:25:09.337Z,71.50
2023-02-09T09:28:13.244Z,71.50
2023-02-09T09:31:20.054Z,71.50
2023-02-09T09:34:25.878Z,71.50
2023-02-09T09:37:31.786Z,71.40
2023-02-09T09:40:38.826Z,71.40
2023-02-09T09:43:44.826Z,71.40
2023-02-09T09:46:52.344Z,71.40
2023-02-09T09:50:00.143Z,71.40
2023-02-09T09:53:12.336Z,71.40
2023-02-09T09:56:21.800Z,71.40
2023-02-09T09:59:28.277Z,71.40
2023-02-09T10:02:35.866Z,71.50
2023-02-09T10:05:41.983Z,71.40
2023-02-09T10:08:52.937Z,71.40
2023-02-09T10:12:05.585Z,71.30
2023-02-09T10:15:28.890Z,71.20
2023-02-09T10:18:37.561Z,71.20
2023-02-09T10:21:45.959Z,71.20
2023-02-09T10:24:49.801Z,71.10
2023-02-09T10:27:55.663Z,71.10
2023-02-09T10:31:01.024Z,71.10
2023-02-09T10:34:15.137Z,71.10
2023-02-09T10:37:23.650Z,71.00
2023-02-09T10:40:32.031Z,71.00
2023-02-09T10:43:36.693Z,71.00
2023-02-09T10:46:42.602Z,71.00
2023-02-09T10:49:54.357Z,71.00
2023-02-09T10:53:03.974Z,71.00
2023-02-09T10:56:16.213Z,71.00
2023-02-09T10:59:24.765Z,70.90
2023-02-09T11:02:36.558Z,70.90
2023-02-09T11:05:42.379Z,70.80
2023-02-09T11:08:49.512Z,70.80
2023-02-09T11:11:55.770Z,70.80
2023-02-09T11:14:59.613Z,70.80
2023-02-09T11:18:13.064Z,70.70
2023-02-09T11:21:21.652Z,71.30
2023-02-09T11:24:46.124Z,70.70
2023-02-09T11:28:26.681Z,70.60
2023-02-09T11:31:47.773Z,70.60
2023-02-09T11:35:11.640Z,70.60
2023-02-09T11:38:21.020Z,70.40
2023-02-09T11:41:44.829Z,70.50
2023-02-09T11:44:59.035Z,70.40
2023-02-09T11:48:09.398Z,70.50
2023-02-09T11:51:18.924Z,70.30
2023-02-09T11:54:27.983Z,70.30
2023-02-09T11:57:41.938Z,70.20
2023-02-09T12:00:57.972Z,70.10
2023-02-09T12:04:13.985Z,70.00
2023-02-09T12:07:26.433Z,70.10
2023-02-09T12:10:36.028Z,70.10
2023-02-09T12:13:57.542Z,70.00
2023-02-09T12:17:12.961Z,69.90
2023-02-09T12:20:29.760Z,69.90
2023-02-09T12:23:37.455Z,70.00
2023-02-09T12:26:43.798Z,69.90
2023-02-09T12:29:51.577Z,69.90
2023-02-09T12:33:17.194Z,69.90
2023-02-09T12:36:29.620Z,69.80
2023-02-09T12:39:35.141Z,69.90
2023-02-09T12:42:42.535Z,69.90
2023-02-09T12:46:12.142Z,69.80
2023-02-09T12:49:22.553Z,69.70
2023-02-09T12:52:26.460Z,69.80
2023-02-09T12:55:32.523Z,69.80
2023-02-09T12:58:38.622Z,69.90
2023-02-09T13:02:13.369Z,69.80
2023-02-09T13:05:19.488Z,69.70
2023-02-09T13:08:46.437Z,69.80
2023-02-09T13:11:57.102Z,69.70
2023-02-09T13:15:13.066Z,69.80
2023-02-09T13:18:26.506Z,69.70
2023-02-09T13:21:40.126Z,69.70
2023-02-09T13:24:50.413Z,69.70
2023-02-09T13:27:56.378Z,69.70
2023-02-09T13:31:01.087Z,69.80
2023-02-09T13:34:25.044Z,69.70
2023-02-09T13:37:36.331Z,69.60
2023-02-09T13:40:47.879Z,69.70
2023-02-09T13:43:51.792Z,69.60
2023-02-09T13:46:59.820Z,69.70
2023-02-09T13:50:13.345Z,69.70
2023-02-09T13:53:22.342Z,69.70
2023-02-09T13:56:28.057Z,69.70
2023-02-09T13:59:34.601Z,69.70
2023-02-09T14:02:39.875Z,69.60
2023-02-09T14:05:52.212Z,69.60
2023-02-09T14:08:57.184Z,69.60
2023-02-09T14:12:09.369Z,69.70
2023-02-09T14:15:29.366Z,69.70
2023-02-09T14:18:50.030Z,69.70
2023-02-09T14:21:55.902Z,69.60
2023-02-09T14:25:02.176Z,69.80
2023-02-09T14:28:06.247Z,69.70
2023-02-09T14:31:20.686Z,69.60
2023-02-09T14:34:31.152Z,69.60
2023-02-09T14:37:39.976Z,69.70
2023-02-09T14:40:43.786Z,69.70
2023-02-09T14:43:59.493Z,69.70
2023-02-09T14:47:03.397Z,69.60
2023-02-09T14:50:14.631Z,69.80
2023-02-09T14:53:21.046Z,69.70
2023-02-09T14:56:33.884Z,69.70
2023-02-09T14:59:37.835Z,69.70
2023-02-09T15:02:43.824Z,69.70
2023-02-09T15:05:49.574Z,69.70
2023-02-09T15:08:57.294Z,69.80
2023-02-09T15:12:07.308Z,69.70
2023-02-09T15:15:18.014Z,69.80
2023-02-09T15:18:23.472Z,69.80
2023-02-09T15:21:29.453Z,69.80
2023-02-09T15:24:35.574Z,69.80
2023-02-09T15:27:51.168Z,69.80
2023-02-09T15:30:55.884Z,69.80
2023-02-09T15:34:01.766Z,69.80
2023-02-09T15:37:05.333Z,69.80
2023-02-09T15:40:36.925Z,69.80
2023-02-09T15:43:53.961Z,69.80
2023-02-09T15:47:13.011Z,69.90
2023-02-09T15:50:17.866Z,69.90
2023-02-09T15:53:25.954Z,70.00
2023-02-09T15:56:31.936Z,70.00
2023-02-09T15:59:37.843Z,69.90
2023-02-09T16:02:41.436Z,69.90
2023-02-09T16:05:49.813Z,70.00
2023-02-09T16:08:54.267Z,70.00
2023-02-09T16:12:02.084Z,70.00
2023-02-09T16:15:14.854Z,70.00
2023-02-09T16:18:20.973Z,70.00
2023-02-09T16:21:27.832Z,70.10
2023-02-09T16:24:37.718Z,70.10
2023-02-09T16:27:43.502Z,70.10
2023-02-09T16:30:53.316Z,70.10
2023-02-09T16:33:57.229Z,70.20
2023-02-09T16:37:03.168Z,70.10
2023-02-09T16:40:08.068Z,70.20
2023-02-09T16:43:16.215Z,70.20
2023-02-09T16:46:20.089Z,70.20
2023-02-09T16:49:33.579Z,70.20
2023-02-09T16:52:38.677Z,70.20
2023-02-09T16:55:47.962Z,70.30
2023-02-09T16:58:54.927Z,70.30
2023-02-09T17:02:01.599Z,70.40
2023-02-09T17:05:16.727Z,70.40
2023-02-09T17:08:24.809Z,70.40
2023-02-09T17:11:30.171Z,70.40
2023-02-09T17:14:37.981Z,70.40
2023-02-09T17:17:47.424Z,70.50
2023-02-09T17:20:56.587Z,70.60
2023-02-09T17:24:00.442Z,70.50
2023-02-09T17:27:06.357Z,70.50
2023-02-09T17:30:13.075Z,70.60
2023-02-09T17:33:23.236Z,70.50
2023-02-09T17:36:29.161Z,70.50
2023-02-09T17:39:35.407Z,70.60
2023-02-09T17:42:39.142Z,70.60
2023-02-09T17:45:50.395Z,70.60
2023-02-09T17:48:54.278Z,70.70
2023-02-09T17:52:00.369Z,70.70
2023-02-09T17:55:04.156Z,70.70
2023-02-09T17:58:10.131Z,70.70
2023-02-09T18:01:26.808Z,70.80
2023-02-09T18:04:33.219Z,70.80
2023-02-09T18:07:37.065Z,70.90
2023-02-09T18:10:42.966Z,70.80
2023-02-09T18:13:46.624Z,70.90
2023-02-09T18:16:55.048Z,70.90
2023-02-09T18:19:58.902Z,70.90
2023-02-09T18:23:06.516Z,71.20
2023-02-09T18:26:10.458Z,70.90
2023-02-09T18:29:16.385Z,70.90
2023-02-09T18:32:23.380Z,71.00
2023-02-09T18:35:34.557Z,71.00
2023-02-09T18:38:39.114Z,71.00
2023-02-09T18:41:47.776Z,71.00
2023-02-09T18:44:51.679Z,71.10
2023-02-09T18:47:59.739Z,71.10
2023-02-09T18:51:03.627Z,71.20
2023-02-09T18:54:09.515Z,71.20
2023-02-09T18:57:14.067Z,71.20
2023-02-09T19:00:20.969Z,71.30
2023-02-09T19:03:26.988Z,71.30
2023-02-09T19:06:34.871Z,71.30
2023-02-09T19:09:39.729Z,71.30
2023-02-09T19:12:47.042Z,71.40
2023-02-09T19:15:51.004Z,71.40
2023-02-09T19:19:00.149Z,71.50
2023-02-09T19:22:03.956Z,71.60
2023-02-09T19:25:10.408Z,71.50
2023-02-09T19:28:14.948Z,71.60
2023-02-09T19:31:20.829Z,71.70
2023-02-09T19:34:26.427Z,71.70
2023-02-09T19:37:32.580Z,71.80
2023-02-09T19:40:40.345Z,71.70
2023-02-09T19:43:46.156Z,71.80
2023-02-09T19:46:50.302Z,71.80
2023-02-09T19:49:59.748Z,71.90
2023-02-09T19:53:04.198Z,71.90
2023-02-09T19:56:16.247Z,71.90
2023-02-09T19:59:20.090Z,71.90
2023-02-09T20:02:26.068Z,72.10
2023-02-09T20:05:32.049Z,72.00
2023-02-09T20:08:38.741Z,72.70
2023-02-09T20:11:42.614Z,72.00
2023-02-09T20:14:48.614Z,72.10
2023-02-09T20:17:52.187Z,72.20
2023-02-09T20:21:00.112Z,72.20
2023-02-09T20:24:08.858Z,72.20
2023-02-09T20:27:14.736Z,72.80
2023-02-09T20:30:18.387Z,72.30
2023-02-09T20:33:24.236Z,72.30
2023-02-09T20:36:30.393Z,72.20
2023-02-09T20:39:36.277Z,72.30
2023-02-09T20:42:53.091Z,72.40
2023-02-09T20:46:12.315Z,72.50
2023-02-09T20:49:18.889Z,72.40
2023-02-09T20:52:27.165Z,72.50
2023-02-09T20:55:31.915Z,72.60
2023-02-09T20:58:38.144Z,72.70
2023-02-09T21:01:42.244Z,72.70
2023-02-09T21:04:48.057Z,72.70
2023-02-09T21:07:53.682Z,72.80
2023-02-09T21:11:00.283Z,72.80
2023-02-09T21:14:04.459Z,72.70
2023-02-09T21:17:10.341Z,72.80
2023-02-09T21:20:14.148Z,72.90
2023-02-09T21:23:21.978Z,72.90
2023-02-09T21:26:25.915Z,72.80
2023-02-09T21:29:33.718Z,72.90
2023-02-09T21:32:38.347Z,72.90
2023-02-09T21:35:44.158Z,72.90
2023-02-09T21:38:49.663Z,73.00
2023-02-09T21:42:08.651Z,73.00
2023-02-09T21:45:12.662Z,72.80
2023-02-09T21:48:18.510Z,72.90
2023-02-09T21:51:22.771Z,72.90
2023-02-09T21:54:33.184Z,72.90
2023-02-09T21:57:37.612Z,73.00
2023-02-09T22:00:43.398Z,72.90
2023-02-09T22:03:52.073Z,73.00
2023-02-09T22:06:57.952Z,72.90
2023-02-09T22:10:03.516Z,73.00
2023-02-09T22:13:09.407Z,73.00
2023-02-09T22:16:18.195Z,72.90
2023-02-09T22:19:24.227Z,73.00
2023-02-09T22:22:28.049Z,73.00
2023-02-09T22:25:36.088Z,73.10
2023-02-09T22:28:40.083Z,73.20
2023-02-09T22:31:46.365Z,73.20
2023-02-09T22:34:50.184Z,73.30
2023-02-09T22:37:55.973Z,73.30
2023-02-09T22:41:06.416Z,73.30
2023-02-09T22:44:14.784Z,73.40
2023-02-09T22:47:18.673Z,73.30
2023-02-09T22:50:24.784Z,73.40
2023-02-09T22:53:28.629Z,73.40
2023-02-09T22:56:36.549Z,73.40
2023-02-09T22:59:40.464Z,73.50
2023-02-09T23:02:46.395Z,73.50
2023-02-09T23:05:50.493Z,73.60
2023-02-09T23:08:57.507Z,73.50
2023-02-09T23:12:03.342Z,73.50
2023-02-09T23:15:10.391Z,73.50
2023-02-09T23:18:16.302Z,73.60
2023-02-09T23:21:21.219Z,73.60
2023-02-09T23:24:27.340Z,73.60
2023-02-09T23:27:33.088Z,73.60
2023-02-09T23:30:38.939Z,73.60
2023-02-09T23:33:42.635Z,73.70
2023-02-09T23:36:49.148Z,73.60
2023-02-09T23:39:52.891Z,73.60
2023-02-09T23:43:00.760Z,73.70
2023-02-09T23:46:05.559Z,73.70
2023-02-09T23:49:12.094Z,73.70
2023-02-09T23:52:15.901Z,73.70
2023-02-09T23:55:21.761Z,73.90
2023-02-09T23:58:27.290Z,73.80
